createdAt,value
2024-03-02T05:52:35.996Z,12.93
2024-03-02T05:55:04.246Z,128.13
2024-03-02T05:57:48.685Z,153.05
2024-03-02T06:00:18.259Z,381.02
2024-03-02T06:02:46.734Z,314.52
2024-03-02T06:05:14.703Z,136.15
2024-03-02T06:07:43.942Z,28.25
2024-03-02T06:10:14.347Z,37.08
2024-03-02T06:12:42.711Z,18.70
2024-03-02T06:15:11.460Z,81.35
2024-03-02T06:17:39.642Z,147.60
2024-03-02T06:20:09.601Z,251.02
2024-03-02T06:22:37.988Z,296.20
2024-03-02T06:25:07.907Z,21.95
2024-03-02T06:27:36.234Z,107.57
2024-03-02T06:30:05.143Z,84.40
2024-03-02T06:32:33.514Z,38.08
2024-03-02T06:35:01.808Z,35.17
2024-03-02T06:37:29.580Z,33.53
2024-03-02T06:39:58.288Z,60.28
2024-03-02T06:42:27.537Z,23.02
2024-03-02T06:44:55.734Z,28.00
2024-03-02T06:47:23.933Z,31.08
2024-03-02T06:49:51.888Z,76.45
2024-03-02T16:50:35.432Z,3.83
2024-03-02T16:53:04.302Z,3.65
2024-03-02T16:55:32.516Z,4.70
2024-03-02T16:58:00.727Z,3.63
2024-03-02T17:00:29.084Z,4.97
2024-03-02T17:02:57.337Z,7.70
2024-03-02T17:05:25.685Z,6.78
2024-03-02T17:07:55.015Z,8.80
2024-03-02T17:10:23.244Z,9.93
2024-03-02T17:12:51.480Z,61.78
2024-03-02T17:15:19.706Z,543.53
2024-03-02T17:17:47.536Z,270.70
2024-03-02T17:20:16.046Z,8.02
2024-03-02T17:22:44.278Z,8.43
2024-03-02T17:25:13.602Z,9.77
2024-03-02T17:27:41.778Z,9.27
2024-03-02T17:30:10.855Z,482.75
2024-03-02T17:32:39.280Z,165.52
2024-03-02T17:35:08.085Z,459.92
2024-03-02T17:37:38.359Z,487.25
2024-03-02T17:40:08.035Z,44.75
2024-03-02T17:42:37.434Z,49.95
2024-03-02T17:45:06.770Z,9.95
2024-03-02T17:47:35.198Z,142.27
2024-03-02T17:50:05.567Z,37.75
2024-03-02T17:52:33.716Z,92.68
2024-03-02T17:55:02.092Z,98.00
2024-03-02T17:57:30.391Z,229.38
2024-03-02T17:59:59.676Z,237.15
2024-03-02T18:02:28.343Z,32.20
2024-03-02T18:04:56.900Z,56.22
2024-03-02T18:07:25.103Z,167.43
2024-03-02T18:09:53.667Z,10.18
2024-03-02T18:12:21.880Z,11.45
2024-03-02T18:14:50.047Z,15.77
2024-03-02T18:17:19.714Z,8.40
2024-03-02T18:19:47.985Z,7.28
2024-03-02T18:22:16.591Z,8.20
2024-03-02T18:24:45.757Z,14.43
2024-03-02T18:27:13.966Z,24.25
2024-03-02T18:29:42.141Z,261.35
2024-03-02T18:32:10.540Z,499.38
2024-03-02T18:34:41.512Z,582.22
2024-03-02T18:37:11.382Z,533.60
2024-03-02T18:39:40.144Z,569.92
2024-03-02T18:42:08.512Z,334.30
2024-03-02T18:44:37.094Z,539.35
2024-03-02T18:47:05.378Z,13.80
2024-03-02T18:49:33.513Z,9.85
2024-03-02T18:52:02.799Z,11.48
2024-03-02T18:54:31.129Z,10.25
2024-03-02T18:56:58.969Z,14.95
2024-03-02T18:59:27.715Z,9.48
2024-03-02T19:01:56.135Z,13.05
2024-03-02T19:04:24.409Z,10.80
2024-03-02T19:06:52.670Z,14.75
2024-03-02T19:09:21.993Z,11.68
2024-03-02T19:11:50.334Z,9.90
2024-03-02T19:14:18.460Z,9.15
2024-03-02T19:16:46.668Z,6.95
2024-03-02T19:19:16.108Z,8.95
2024-03-02T19:21:45.943Z,6.68
2024-03-02T19:24:14.385Z,6.15
2024-03-02T19:26:43.664Z,5.30
2024-03-02T19:29:12.394Z,5.65
2024-03-02T19:31:40.612Z,14.25
2024-03-02T19:34:08.859Z,36.25
2024-03-02T19:36:37.126Z,63.28
2024-03-02T19:39:05.090Z,46.45
2024-03-02T19:41:32.878Z,4.68
2024-03-02T19:44:04.571Z,7.13
2024-03-02T19:46:32.378Z,10.05
2024-03-02T19:49:00.990Z,8.00
2024-03-02T19:51:29.644Z,7.00
2024-03-02T19:53:59.094Z,7.75
2024-03-02T19:56:28.453Z,7.38
2024-03-02T19:58:56.645Z,8.90
2024-03-02T20:01:26.235Z,9.98
2024-03-02T20:03:54.523Z,17.60
2024-03-02T20:06:25.989Z,10.68
2024-03-02T20:08:54.180Z,7.88
2024-03-02T20:11:22.570Z,12.68
2024-03-02T20:13:50.834Z,10.48
2024-03-02T20:16:21.939Z,10.18
2024-03-02T20:18:51.696Z,12.65
2024-03-02T20:21:20.109Z,10.65
2024-03-02T20:23:49.025Z,13.23
2024-03-02T20:26:20.308Z,11.25
2024-03-02T20:28:52.993Z,12.02
2024-03-02T20:31:21.404Z,13.85
2024-03-02T20:33:49.759Z,12.95
2024-03-02T20:36:18.919Z,11.88
2024-03-02T20:38:47.105Z,14.95
2024-03-02T20:41:18.507Z,16.08
2024-03-02T20:43:47.032Z,10.80
2024-03-02T20:46:15.736Z,13.70
2024-03-02T20:48:44.935Z,22.58
2024-03-02T20:51:12.821Z,10.80
2024-03-02T20:53:41.967Z,14.27
2024-03-02T20:56:10.153Z,13.07
2024-03-02T20:58:38.409Z,10.15
2024-03-02T21:01:07.025Z,12.00
2024-03-02T21:03:38.580Z,14.52
2024-03-02T21:06:06.595Z,10.80
2024-03-02T21:08:34.430Z,9.80
2024-03-02T21:11:04.676Z,12.00
2024-03-02T21:13:32.636Z,11.07
2024-03-02T21:16:00.840Z,16.08
2024-03-02T21:18:29.066Z,16.20
2024-03-02T21:20:57.201Z,447.75
2024-03-02T21:23:25.340Z,600.30
2024-03-02T21:25:53.112Z,219.52
2024-03-02T21:28:22.307Z,13.80
2024-03-02T21:30:50.305Z,13.32
2024-03-02T21:33:18.151Z,14.68
2024-03-02T21:35:45.960Z,12.63
2024-03-02T21:38:13.924Z,13.35
